createdAt,value
2022-12-31T00:01:53.431Z,12.50
2022-12-31T00:04:23.754Z,12.50
2022-12-31T00:06:56.457Z,12.60
2022-12-31T00:09:26.428Z,12.70
2022-12-31T00:11:56.503Z,12.70
2022-12-31T00:14:26.470Z,12.80
2022-12-31T00:16:59.467Z,12.80
2022-12-31T00:19:29.588Z,12.90
2022-12-31T00:22:02.256Z,12.90
2022-12-31T00:24:33.346Z,12.90
2022-12-31T00:27:03.411Z,12.90
2022-12-31T00:29:33.457Z,12.90
2022-12-31T00:32:03.480Z,12.90
2022-12-31T00:34:33.528Z,12.70
2022-12-31T00:37:06.109Z,12.60
2022-12-31T00:39:36.124Z,12.70
2022-12-31T00:42:06.424Z,12.80
2022-12-31T00:44:36.477Z,12.90
2022-12-31T00:47:06.743Z,12.90
2022-12-31T00:49:36.771Z,13.00
2022-12-31T00:52:09.847Z,13.00
2022-12-31T00:54:40.069Z,13.10
2022-12-31T00:57:10.058Z,13.00
2022-12-31T00:59:40.063Z,13.00
2022-12-31T01:02:10.295Z,13.10
2022-12-31T01:04:40.598Z,13.10
2022-12-31T01:07:13.258Z,13.10
2022-12-31T01:09:43.767Z,13.10
2022-12-31T01:12:14.124Z,13.10
2022-12-31T01:14:44.235Z,13.00
2022-12-31T01:17:14.300Z,13.00
2022-12-31T01:19:45.901Z,13.00
2022-12-31T01:22:18.735Z,13.00
2022-12-31T01:24:51.224Z,12.90
2022-12-31T01:27:21.221Z,12.90
2022-12-31T01:29:51.244Z,12.90
2022-12-31T01:32:21.240Z,12.90
2022-12-31T01:34:51.581Z,12.80
2022-12-31T01:37:24.215Z,12.70
2022-12-31T01:39:54.248Z,12.60
2022-12-31T01:42:24.407Z,12.50
2022-12-31T01:44:58.053Z,12.40
2022-12-31T01:47:50.503Z,12.40
2022-12-31T01:50:26.715Z,12.30
2022-12-31T01:53:03.863Z,12.20
2022-12-31T01:55:39.134Z,12.10
2022-12-31T01:58:15.360Z,12.00
2022-12-31T02:00:46.969Z,12.10
2022-12-31T02:03:17.558Z,12.10
2022-12-31T02:05:56.307Z,12.10
2022-12-31T02:08:28.932Z,12.00
2022-12-31T02:10:59.010Z,11.90
2022-12-31T02:13:29.241Z,11.90
2022-12-31T02:16:12.184Z,11.80
2022-12-31T02:18:53.836Z,11.80
2022-12-31T02:21:53.632Z,11.70
2022-12-31T02:24:55.545Z,11.70
2022-12-31T02:27:50.703Z,11.70
2022-12-31T02:30:27.662Z,11.70
2022-12-31T02:33:13.079Z,11.80
2022-12-31T02:35:51.872Z,11.80
2022-12-31T02:38:31.408Z,11.80
2022-12-31T02:41:02.063Z,11.90
2022-12-31T02:43:32.440Z,12.00
2022-12-31T02:46:18.468Z,12.00
2022-12-31T02:48:59.123Z,12.20
2022-12-31T02:51:46.216Z,12.40
2022-12-31T02:54:31.353Z,12.60
2022-12-31T02:57:12.691Z,12.70
2022-12-31T03:00:05.858Z,12.90
2022-12-31T03:02:42.589Z,13.00
2022-12-31T03:05:16.700Z,13.00
2022-12-31T03:07:48.313Z,13.10
2022-12-31T03:10:19.682Z,13.10
2022-12-31T03:12:48.278Z,13.10
2022-12-31T03:15:22.916Z,13.20
2022-12-31T03:18:00.557Z,13.20
2022-12-31T03:20:47.332Z,13.10
2022-12-31T03:23:23.393Z,13.00
2022-12-31T03:25:51.125Z,12.80
2022-12-31T03:28:24.331Z,12.80
2022-12-31T03:30:57.689Z,12.60
2022-12-31T03:33:35.171Z,12.60
2022-12-31T03:36:08.400Z,12.50
2022-12-31T03:38:38.603Z,12.50
2022-12-31T03:41:09.274Z,12.60
2022-12-31T03:43:39.290Z,12.60
2022-12-31T03:46:09.917Z,12.80
2022-12-31T03:48:42.572Z,12.90
2022-12-31T03:51:12.559Z,13.00
2022-12-31T03:53:42.546Z,13.10
2022-12-31T03:56:12.482Z,13.30
2022-12-31T03:58:42.747Z,13.40
2022-12-31T04:01:12.780Z,13.50
2022-12-31T04:03:45.578Z,13.60
2022-12-31T04:06:15.576Z,13.70
2022-12-31T04:08:45.530Z,13.70
2022-12-31T04:11:20.822Z,13.70
2022-12-31T04:13:51.166Z,13.80
2022-12-31T04:16:21.174Z,13.80
2022-12-31T04:18:54.120Z,13.90
2022-12-31T04:21:24.068Z,13.90
2022-12-31T04:23:54.338Z,13.90
2022-12-31T04:26:24.717Z,14.00
2022-12-31T04:28:54.900Z,14.00
2022-12-31T04:31:24.996Z,14.00
2022-12-31T04:33:57.595Z,14.00
2022-12-31T04:36:27.759Z,14.00
2022-12-31T04:38:58.511Z,14.10
2022-12-31T04:41:28.616Z,14.10
2022-12-31T04:44:01.331Z,14.00
2022-12-31T04:46:34.691Z,13.90
2022-12-31T04:49:07.590Z,13.80
2022-12-31T04:51:37.970Z,13.70
2022-12-31T04:54:08.602Z,13.70
2022-12-31T04:56:38.725Z,13.80
2022-12-31T04:59:10.141Z,13.90
2022-12-31T05:01:40.324Z,14.00
2022-12-31T05:04:12.962Z,13.90
2022-12-31T05:06:43.035Z,13.80
2022-12-31T05:09:13.048Z,13.80
2022-12-31T05:11:42.959Z,13.80
2022-12-31T05:14:13.443Z,13.90
2022-12-31T05:16:43.469Z,13.80
2022-12-31T05:19:16.607Z,13.80
2022-12-31T05:22:07.140Z,13.80
2022-12-31T05:24:37.143Z,13.80
2022-12-31T05:27:07.408Z,13.90
2022-12-31T05:29:37.812Z,13.90
2022-12-31T05:32:08.258Z,13.80
2022-12-31T05:34:40.811Z,13.70
2022-12-31T05:37:11.029Z,13.60
2022-12-31T05:39:41.064Z,13.60
2022-12-31T05:42:11.331Z,13.50
2022-12-31T05:44:41.315Z,13.50
2022-12-31T05:47:11.581Z,13.50
2022-12-31T05:49:44.116Z,13.50
2022-12-31T05:52:14.094Z,13.50
2022-12-31T05:54:44.137Z,13.40
2022-12-31T05:57:14.914Z,13.40
2022-12-31T05:59:45.098Z,13.30
2022-12-31T06:02:15.813Z,13.20
2022-12-31T06:04:48.365Z,13.20
2022-12-31T06:07:19.267Z,13.20
2022-12-31T06:09:49.449Z,13.20
2022-12-31T06:12:19.568Z,13.20
2022-12-31T06:14:49.518Z,13.10
2022-12-31T06:17:20.636Z,13.10
2022-12-31T06:19:53.322Z,13.20
2022-12-31T06:22:23.276Z,13.20
2022-12-31T06:24:53.272Z,13.30
2022-12-31T06:27:23.348Z,13.40
2022-12-31T06:29:53.831Z,13.40
2022-12-31T06:32:24.279Z,13.40
2022-12-31T06:34:56.965Z,13.30
2022-12-31T06:37:26.996Z,13.30
2022-12-31T06:39:57.065Z,13.30
2022-12-31T06:42:27.090Z,13.30
2022-12-31T06:44:57.148Z,13.30
2022-12-31T06:47:27.300Z,13.30
2022-12-31T06:50:00.179Z,13.40
2022-12-31T06:52:30.146Z,13.30
2022-12-31T06:55:01.315Z,13.30
2022-12-31T06:57:32.845Z,13.30
2022-12-31T07:00:03.822Z,13.30
2022-12-31T07:03:18.668Z,13.40
2022-12-31T07:05:59.709Z,13.40
2022-12-31T07:08:47.784Z,13.40
2022-12-31T07:11:24.978Z,13.30
2022-12-31T07:14:21.112Z,13.20
2022-12-31T07:17:08.929Z,13.10
2022-12-31T07:19:57.989Z,13.00
2022-12-31T07:22:32.013Z,12.90
2022-12-31T07:25:03.203Z,12.90
2022-12-31T07:27:52.982Z,13.00
2022-12-31T07:30:27.504Z,12.90
2022-12-31T07:33:14.077Z,13.10
2022-12-31T07:36:00.003Z,13.20
2022-12-31T07:38:43.288Z,13.40
2022-12-31T07:41:25.793Z,13.50
2022-12-31T07:44:06.738Z,13.60
2022-12-31T07:46:48.388Z,13.50
2022-12-31T07:49:19.537Z,13.60
2022-12-31T07:51:51.805Z,13.70
2022-12-31T07:54:25.076Z,13.80
2022-12-31T07:56:55.252Z,13.80
2022-12-31T07:59:44.453Z,14.00
2022-12-31T08:02:34.894Z,14.10
2022-12-31T08:05:18.096Z,14.10
2022-12-31T08:07:58.580Z,14.20
2022-12-31T08:10:40.336Z,14.30
2022-12-31T08:13:15.292Z,14.30
2022-12-31T08:15:46.342Z,14.40
2022-12-31T08:18:17.917Z,14.50
2022-12-31T08:21:02.670Z,14.60
2022-12-31T08:23:47.586Z,14.80
2022-12-31T08:26:37.538Z,15.00
2022-12-31T08:29:33.628Z,15.20
2022-12-31T08:32:15.372Z,15.50
2022-12-31T08:35:01.017Z,15.70
2022-12-31T08:37:42.112Z,15.70
2022-12-31T08:40:26.895Z,15.80
2022-12-31T08:43:22.143Z,15.80
2022-12-31T08:45:55.486Z,15.90
2022-12-31T08:48:36.082Z,16.00
2022-12-31T08:51:08.663Z,15.90
2022-12-31T08:53:41.680Z,16.00
2022-12-31T08:56:25.252Z,16.00
2022-12-31T08:59:11.163Z,16.10
2022-12-31T09:02:01.031Z,16.20
2022-12-31T09:04:48.830Z,16.30
2022-12-31T09:07:25.041Z,16.20
2022-12-31T09:10:05.800Z,16.30
2022-12-31T09:12:51.377Z,16.20
2022-12-31T09:15:33.102Z,16.40
2022-12-31T09:18:04.104Z,16.30
2022-12-31T09:20:44.246Z,16.30
2022-12-31T09:23:16.044Z,16.40
2022-12-31T09:26:03.868Z,16.60
2022-12-31T09:28:50.987Z,16.60
2022-12-31T09:31:38.296Z,16.70
2022-12-31T09:34:22.324Z,16.80
2022-12-31T09:37:02.177Z,17.10
2022-12-31T09:39:42.452Z,17.30
2022-12-31T09:43:02.766Z,17.40
2022-12-31T09:46:22.938Z,17.70
2022-12-31T09:49:54.273Z,17.80
2022-12-31T09:52:36.456Z,17.80
2022-12-31T09:55:33.398Z,17.80
2022-12-31T09:58:26.653Z,17.70
2022-12-31T10:01:10.098Z,17.70
2022-12-31T10:04:09.200Z,17.60
2022-12-31T10:06:56.752Z,17.60
2022-12-31T10:09:49.457Z,17.60
2022-12-31T10:13:04.701Z,17.80
2022-12-31T10:16:08.714Z,17.70
2022-12-31T10:19:15.965Z,17.80
2022-12-31T10:22:06.451Z,17.90
2022-12-31T10:25:08.594Z,18.10
2022-12-31T10:27:54.409Z,18.10
2022-12-31T10:30:27.210Z,18.10
2022-12-31T10:33:20.820Z,18.10
2022-12-31T10:38:55.498Z,18.00
2022-12-31T10:42:22.600Z,17.90
2022-12-31T10:45:29.579Z,17.80
2022-12-31T10:48:40.801Z,17.70
2022-12-31T10:52:13.535Z,17.60
2022-12-31T10:55:30.858Z,17.60
2022-12-31T10:59:03.861Z,17.60
2022-12-31T11:01:51.515Z,17.60
2022-12-31T11:05:00.743Z,17.60
2022-12-31T11:08:23.235Z,17.70
2022-12-31T11:11:19.855Z,17.70
2022-12-31T11:14:32.096Z,17.50
2022-12-31T11:17:51.367Z,17.60
2022-12-31T11:20:45.531Z,17.70
2022-12-31T11:23:37.882Z,17.90
2022-12-31T11:26:26.886Z,17.90
2022-12-31T11:29:17.046Z,17.90
2022-12-31T11:32:08.261Z,18.10
2022-12-31T11:35:07.301Z,18.20
2022-12-31T11:37:48.225Z,18.30
2022-12-31T11:40:42.473Z,18.30
2022-12-31T11:43:30.780Z,18.30
2022-12-31T11:46:29.446Z,18.30
2022-12-31T11:49:26.571Z,18.30
2022-12-31T11:52:47.057Z,18.30
2022-12-31T11:55:52.956Z,18.30
2022-12-31T11:58:28.649Z,18.30
2022-12-31T12:01:04.177Z,18.30
2022-12-31T12:03:39.765Z,18.30
2022-12-31T12:06:14.559Z,18.40
2022-12-31T12:08:46.767Z,18.40
2022-12-31T12:11:26.531Z,18.40
2022-12-31T12:14:00.094Z,18.50
2022-12-31T12:16:31.352Z,18.50
2022-12-31T12:19:09.186Z,18.50
2022-12-31T12:21:50.038Z,18.60
2022-12-31T12:24:27.692Z,18.70
2022-12-31T12:26:59.253Z,18.60
2022-12-31T12:29:36.181Z,18.50
2022-12-31T12:32:10.287Z,18.60
2022-12-31T12:34:49.140Z,18.70
2022-12-31T12:37:34.405Z,18.80
2022-12-31T12:40:09.431Z,18.70
2022-12-31T12:42:49.543Z,18.80
2022-12-31T12:45:25.648Z,18.90
2022-12-31T12:48:02.976Z,18.80
2022-12-31T12:50:44.998Z,18.70
2022-12-31T12:53:39.733Z,18.70
2022-12-31T12:56:30.597Z,18.70
2022-12-31T12:59:32.764Z,18.80
2022-12-31T13:02:27.204Z,18.80
2022-12-31T13:05:24.381Z,19.00
2022-12-31T13:08:18.469Z,18.90
2022-12-31T13:11:21.921Z,18.90
2022-12-31T13:14:04.947Z,19.00
2022-12-31T13:16:45.655Z,19.00
2022-12-31T13:19:36.302Z,18.90
2022-12-31T13:22:14.282Z,18.80
2022-12-31T13:25:03.658Z,18.80
2022-12-31T13:27:40.652Z,18.80
2022-12-31T13:30:20.216Z,19.00
2022-12-31T13:32:58.549Z,19.00
2022-12-31T13:35:36.255Z,19.10
2022-12-31T13:38:15.447Z,19.10
2022-12-31T13:40:54.691Z,19.00
2022-12-31T13:43:39.873Z,19.00
2022-12-31T13:46:21.902Z,18.80
2022-12-31T13:48:59.143Z,18.70
2022-12-31T13:51:43.879Z,18.60
2022-12-31T13:54:33.638Z,18.60
2022-12-31T13:57:11.933Z,18.70
2022-12-31T13:59:51.198Z,18.60
2022-12-31T14:02:38.180Z,18.50
2022-12-31T14:05:21.579Z,18.60
2022-12-31T14:07:59.847Z,18.50
2022-12-31T14:10:44.068Z,18.50
2022-12-31T14:13:35.097Z,18.50
2022-12-31T14:16:23.001Z,18.40
2022-12-31T14:19:09.485Z,18.40
2022-12-31T14:21:48.841Z,18.30
2022-12-31T14:24:41.673Z,18.20
2022-12-31T14:27:19.934Z,18.00
2022-12-31T14:29:56.819Z,17.90
2022-12-31T14:33:07.935Z,17.70
2022-12-31T14:36:10.129Z,17.50
2022-12-31T14:39:10.003Z,17.40
2022-12-31T14:42:11.679Z,17.30
2022-12-31T14:45:02.869Z,17.20
2022-12-31T14:47:47.591Z,17.10
2022-12-31T14:50:23.936Z,16.90
2022-12-31T14:52:58.263Z,16.70
2022-12-31T14:55:33.737Z,16.70
2022-12-31T14:58:28.112Z,16.60
2022-12-31T15:01:00.774Z,16.50
2022-12-31T15:03:45.434Z,16.40
2022-12-31T15:06:49.653Z,16.20
2022-12-31T15:09:49.021Z,16.20
2022-12-31T15:12:59.282Z,16.10
2022-12-31T15:16:02.667Z,15.90
2022-12-31T15:18:52.913Z,15.50
2022-12-31T15:22:03.673Z,15.50
2022-12-31T15:24:34.300Z,15.40
2022-12-31T15:27:08.503Z,15.30
2022-12-31T15:29:47.686Z,15.20
2022-12-31T15:32:29.504Z,15.10
2022-12-31T15:35:07.033Z,14.90
2022-12-31T15:37:39.183Z,14.90
2022-12-31T15:40:25.082Z,14.80
2022-12-31T15:43:00.884Z,14.80
2022-12-31T15:45:37.997Z,14.70
2022-12-31T15:48:22.173Z,14.60
2022-12-31T15:50:56.902Z,14.60
2022-12-31T15:53:34.971Z,14.50
2022-12-31T15:56:07.055Z,14.40
2022-12-31T15:58:39.445Z,14.30
2022-12-31T16:01:18.468Z,14.10
2022-12-31T16:03:58.416Z,14.20
2022-12-31T16:06:34.112Z,14.10
2022-12-31T16:09:04.608Z,14.10
2022-12-31T16:11:41.022Z,13.90
2022-12-31T16:14:21.084Z,13.80
2022-12-31T16:17:03.063Z,13.70
2022-12-31T16:19:43.752Z,13.80
2022-12-31T16:22:20.816Z,13.80
2022-12-31T16:27:48.122Z,13.80
2022-12-31T16:30:25.459Z,13.70
2022-12-31T16:32:59.264Z,13.60
2022-12-31T16:35:36.334Z,13.60
2022-12-31T16:38:17.411Z,13.40
2022-12-31T16:41:09.670Z,13.30
2022-12-31T16:43:42.147Z,13.20
2022-12-31T16:46:20.393Z,13.00
2022-12-31T16:48:55.875Z,13.00
2022-12-31T16:51:33.265Z,13.00
2022-12-31T16:54:05.405Z,12.90
2022-12-31T16:56:39.783Z,12.80
2022-12-31T16:59:23.983Z,12.80
2022-12-31T17:01:56.996Z,12.70
2022-12-31T17:04:28.202Z,12.70
2022-12-31T17:07:43.322Z,12.70
2022-12-31T17:10:23.962Z,12.70
2022-12-31T17:15:49.259Z,12.50
2022-12-31T17:18:23.272Z,12.40
2022-12-31T17:20:56.529Z,12.40
2022-12-31T17:23:34.458Z,12.40
2022-12-31T17:26:13.299Z,12.40
2022-12-31T17:28:48.836Z,12.30
2022-12-31T17:31:37.318Z,12.30
2022-12-31T17:34:25.362Z,12.30
2022-12-31T17:37:04.944Z,12.30
2022-12-31T17:39:53.561Z,12.30
2022-12-31T17:42:33.967Z,12.40
2022-12-31T17:45:09.083Z,12.40
2022-12-31T17:47:42.806Z,12.30
2022-12-31T17:50:22.434Z,12.30
2022-12-31T17:52:52.881Z,12.30
2022-12-31T17:55:25.897Z,12.30
2022-12-31T17:57:59.896Z,12.30
2022-12-31T18:00:30.777Z,12.30
2022-12-31T18:03:00.836Z,12.20
2022-12-31T18:05:30.869Z,12.10
2022-12-31T18:08:00.905Z,12.00
2022-12-31T18:10:38.936Z,11.90
2022-12-31T18:13:14.913Z,11.90
2022-12-31T18:15:44.981Z,11.90
2022-12-31T18:18:25.870Z,12.00
2022-12-31T18:21:01.308Z,12.00
2022-12-31T18:23:38.222Z,12.00
2022-12-31T18:26:16.047Z,12.00
2022-12-31T18:28:46.191Z,12.00
2022-12-31T18:31:21.766Z,12.00
2022-12-31T18:33:53.918Z,12.00
2022-12-31T18:36:26.461Z,12.00
2022-12-31T18:38:56.496Z,11.90
2022-12-31T18:41:37.882Z,11.90
2022-12-31T18:44:08.198Z,11.90
2022-12-31T18:46:38.144Z,11.80
2022-12-31T18:49:08.152Z,11.60
2022-12-31T18:51:38.503Z,11.60
2022-12-31T18:54:09.740Z,11.60
2022-12-31T18:56:47.643Z,11.70
2022-12-31T18:59:19.292Z,11.70
2022-12-31T19:01:49.347Z,11.80
2022-12-31T19:04:27.476Z,11.90
2022-12-31T19:06:59.178Z,12.00
2022-12-31T19:09:46.113Z,11.90
2022-12-31T19:12:19.488Z,12.00
2022-12-31T19:14:49.476Z,12.00
2022-12-31T19:17:21.717Z,11.90
2022-12-31T19:19:51.699Z,11.80
2022-12-31T19:22:21.776Z,11.90
2022-12-31T19:24:51.746Z,11.90
2022-12-31T19:27:24.702Z,11.80
2022-12-31T19:29:54.612Z,11.80
2022-12-31T19:32:24.553Z,11.70
2022-12-31T19:34:54.522Z,11.60
2022-12-31T19:37:24.480Z,11.60
2022-12-31T19:39:54.640Z,11.50
2022-12-31T19:42:27.192Z,11.40
2022-12-31T19:44:57.288Z,11.30
2022-12-31T19:47:27.233Z,11.30
2022-12-31T19:49:57.181Z,11.20
2022-12-31T19:52:27.119Z,11.30
2022-12-31T19:54:57.176Z,11.10
2022-12-31T19:57:29.692Z,11.20
2022-12-31T19:59:59.655Z,11.30
2022-12-31T20:02:29.727Z,11.30
2022-12-31T20:04:59.813Z,11.40
2022-12-31T20:07:29.834Z,11.40
2022-12-31T20:09:59.804Z,11.40
2022-12-31T20:12:34.754Z,11.50
2022-12-31T20:15:09.525Z,11.40
2022-12-31T20:17:39.583Z,11.50
2022-12-31T20:20:11.268Z,11.60
2022-12-31T20:22:41.384Z,11.50
2022-12-31T20:25:12.245Z,11.50
2022-12-31T20:27:45.176Z,11.60
2022-12-31T20:30:16.794Z,11.60
2022-12-31T20:32:46.748Z,11.50
2022-12-31T20:35:16.848Z,11.40
2022-12-31T20:37:46.935Z,11.50
2022-12-31T20:40:17.591Z,11.50
2022-12-31T20:42:50.299Z,11.50
2022-12-31T20:45:20.492Z,11.50
2022-12-31T20:47:50.413Z,11.60
2022-12-31T20:50:20.891Z,11.60
2022-12-31T20:52:51.068Z,11.50
2022-12-31T20:55:21.247Z,11.40
2022-12-31T20:57:53.824Z,11.40
2022-12-31T21:00:24.097Z,11.40
2022-12-31T21:03:06.451Z,11.30
2022-12-31T21:05:38.508Z,11.30
2022-12-31T21:08:08.623Z,11.30
2022-12-31T21:10:38.649Z,11.20
2022-12-31T21:13:09.085Z,11.20
2022-12-31T21:15:39.193Z,11.20
2022-12-31T21:18:09.376Z,11.10
2022-12-31T21:20:39.368Z,11.00
2022-12-31T21:23:09.319Z,10.90
2022-12-31T21:25:39.243Z,10.80
2022-12-31T21:28:12.725Z,10.70
2022-12-31T21:30:44.220Z,10.70
2022-12-31T21:33:14.233Z,10.60
2022-12-31T21:35:51.795Z,10.50
2022-12-31T21:38:23.898Z,10.40
2022-12-31T21:40:54.086Z,10.00
2022-12-31T21:43:26.675Z,10.00
2022-12-31T21:46:04.511Z,10.00
2022-12-31T21:48:35.385Z,10.00
2022-12-31T21:51:12.993Z,9.90
2022-12-31T21:53:43.727Z,9.90
2022-12-31T21:56:14.571Z,9.80
2022-12-31T21:59:09.774Z,9.90
2022-12-31T22:01:52.403Z,9.90
2022-12-31T22:05:00.406Z,9.90
2022-12-31T22:07:12.739Z,9.80
2022-12-31T22:09:42.673Z,9.80
2022-12-31T22:12:12.640Z,9.70
2022-12-31T22:15:15.223Z,9.60
2022-12-31T22:17:35.226Z,9.50
2022-12-31T22:22:55.682Z,9.40
2022-12-31T22:25:25.913Z,9.40
2022-12-31T22:28:36.068Z,9.40
2022-12-31T22:30:51.081Z,9.30
2022-12-31T22:33:21.259Z,9.30
2022-12-31T22:36:01.937Z,9.40
2022-12-31T22:38:33.079Z,9.40
2022-12-31T22:41:08.935Z,9.40
2022-12-31T22:43:42.127Z,9.50
2022-12-31T22:46:18.354Z,9.40
2022-12-31T22:48:48.870Z,9.40
2022-12-31T22:51:20.747Z,9.20
2022-12-31T22:53:51.061Z,9.30
2022-12-31T22:56:22.661Z,9.20
2022-12-31T22:58:52.639Z,9.20
2022-12-31T23:01:27.659Z,9.20
2022-12-31T23:03:58.821Z,9.30
2022-12-31T23:06:29.271Z,9.20
2022-12-31T23:09:12.387Z,9.20
2022-12-31T23:11:43.693Z,9.20
2022-12-31T23:14:32.488Z,9.20
2022-12-31T23:17:31.210Z,9.20
2022-12-31T23:20:14.891Z,9.30
2022-12-31T23:22:57.394Z,9.40
2022-12-31T23:25:27.646Z,9.40
2022-12-31T23:27:57.773Z,9.50
2022-12-31T23:30:27.833Z,9.50
2022-12-31T23:33:00.512Z,9.50
2022-12-31T23:40:34.468Z,9.50
2022-12-31T23:43:06.222Z,9.40
2022-12-31T23:45:37.692Z,9.40
2022-12-31T23:48:10.986Z,9.40
2022-12-31T23:50:47.668Z,9.40
2022-12-31T23:53:21.011Z,9.60
2022-12-31T23:55:51.101Z,9.60
2022-12-31T23:58:21.689Z,9.60
